Time;durP1;ratioP1;P1;durP2;ratioP2;P2;SDS_P1;SDS_P2;PMS_P1;PMS_P2;Temp;Humidity;BMP_temperature;BMP_pressure;BME280_temperature;BME280_humidity;BME280_pressure;Samples;Min_cycle;Max_cycle;Signal;HPM_P1;HPM_P2
2022/09/12 09:21:02;;;;;;;3.07;2.87;;;26.10;74.80;;;;;;5107876;28;20975;-82
2022/09/12 09:23:33;;;;;;;3.20;3.00;;;26.10;74.80;;;;;;5081858;28;20498;-84
2022/09/12 09:28:48;;;;;;;2.40;2.30;;;26.20;74.70;;;;;;5025106;28;20463;-84
2022/09/12 09:31:16;;;;;;;2.83;2.63;;;26.20;74.50;;;;;;5076114;28;20433;-85
2022/09/12 09:33:44;;;;;;;3.27;3.00;;;26.20;74.50;;;;;;5074865;28;20448;-86
2022/09/12 09:36:19;;;;;;;2.93;2.60;;;26.30;74.50;;;;;;5072977;28;20480;-87
2022/09/12 09:38:49;;;;;;;3.07;2.87;;;26.30;74.40;;;;;;5073386;28;20450;-86
2022/09/12 09:41:39;;;;;;;3.50;3.30;;;26.30;74.40;;;;;;5073818;28;20441;-84
2022/09/12 09:44:06;;;;;;;2.67;2.47;;;26.40;74.30;;;;;;5079441;28;20497;-85
2022/09/12 09:46:33;;;;;;;2.70;2.50;;;26.40;74.40;;;;;;5095425;28;20446;-84
2022/09/12 09:49:03;;;;;;;2.77;2.67;;;26.40;74.40;;;;;;5095173;28;20515;-87
2022/09/12 09:51:35;;;;;;;2.23;2.13;;;26.50;74.40;;;;;;5094983;28;20442;-85
2022/09/12 09:54:09;;;;;;;3.00;2.80;;;26.50;74.30;;;;;;5095087;28;20527;-85
2022/09/12 09:56:41;;;;;;;4.50;2.10;;;26.50;74.40;;;;;;5095526;28;20487;-85
2022/09/12 09:59:11;;;;;;;2.20;2.00;;;26.50;74.40;;;;;;5094969;28;20469;-84
2022/09/12 10:01:43;;;;;;;2.80;2.70;;;26.40;74.30;;;;;;5095051;28;20443;-85
2022/09/12 10:04:21;;;;;;;3.90;2.97;;;26.50;74.40;;;;;;5095938;28;20440;-85
2022/09/12 10:06:51;;;;;;;2.40;2.23;;;26.50;74.30;;;;;;5096071;28;20461;-84
2022/09/12 10:09:22;;;;;;;3.20;3.00;;;26.50;74.30;;;;;;5098519;28;20465;-85
2022/09/12 10:11:50;;;;;;;2.43;2.33;;;26.60;74.40;;;;;;5089513;28;20437;-85
2022/09/12 10:14:41;;;;;;;2.43;2.27;;;26.60;74.40;;;;;;5097488;28;20533;-85
2022/09/12 10:17:27;;;;;;;3.40;2.37;;;26.60;74.20;;;;;;5078401;28;20483;-85
2022/09/12 10:19:55;;;;;;;2.40;2.23;;;26.60;74.20;;;;;;5101152;28;20434;-85
2022/09/12 10:22:26;;;;;;;2.03;1.93;;;26.50;74.30;;;;;;5097955;28;20482;-86
2022/09/12 10:24:54;;;;;;;2.37;2.27;;;26.60;74.40;;;;;;5097524;28;20435;-87
2022/09/12 10:27:24;;;;;;;2.23;2.03;;;26.60;74.30;;;;;;5098328;28;20446;-85
2022/09/12 10:29:54;;;;;;;2.50;2.37;;;26.70;74.40;;;;;;5096874;28;20442;-86
2022/09/12 10:32:27;;;;;;;4.70;2.47;;;26.60;74.40;;;;;;5096739;28;20528;-94
2022/09/12 10:34:57;;;;;;;2.27;2.10;;;26.70;74.40;;;;;;5096764;28;20436;-86
2022/09/12 10:37:31;;;;;;;5.73;2.30;;;26.70;74.30;;;;;;5097117;28;20505;-84
2022/09/12 10:39:59;;;;;;;2.30;2.20;;;26.70;74.30;;;;;;5097629;28;20489;-86
2022/09/12 10:42:45;;;;;;;2.03;1.93;;;26.70;74.30;;;;;;5097845;28;20926;-95
2022/09/12 10:45:23;;;;;;;2.27;2.17;;;26.80;74.20;;;;;;5103059;28;20463;-84
2022/09/12 10:47:52;;;;;;;2.30;2.20;;;26.70;74.30;;;;;;5104045;28;20840;-85
2022/09/12 10:50:30;;;;;;;2.23;2.13;;;26.70;74.30;;;;;;5101953;28;20430;-85
2022/09/12 10:53:14;;;;;;;2.23;2.03;;;26.80;74.30;;;;;;5100002;28;20490;-85
2022/09/12 10:55:50;;;;;;;2.30;2.20;;;26.80;74.30;;;;;;5100099;28;20447;-87
2022/09/12 10:58:40;;;;;;;2.40;2.30;;;26.70;74.30;;;;;;5099888;28;20444;-85
2022/09/12 11:01:19;;;;;;;2.00;1.90;;;26.80;74.30;;;;;;5097339;28;20450;-85
2022/09/12 11:04:04;;;;;;;2.03;1.90;;;26.80;74.40;;;;;;5097395;28;20453;-90
2022/09/12 11:06:39;;;;;;;2.40;2.20;;;26.80;74.40;;;;;;5096631;28;20447;-87
2022/09/12 12:18:29;;;;;;;2.50;2.00;;;26.90;74.70;;;;;;5094227;28;20458;-86
2022/09/12 12:21:22;;;;;;;2.00;1.77;;;26.90;74.70;;;;;;5095744;28;20448;-84
2022/09/12 12:24:14;;;;;;;1.60;1.50;;;26.90;74.70;;;;;;5094952;28;20539;-89
2022/09/12 12:26:56;;;;;;;2.17;2.07;;;26.90;74.60;;;;;;5094067;28;20541;-86
2022/09/12 13:03:29;;;;;;;3.50;2.50;;;26.90;74.50;;;;;;4990539;28;21021;-84
2022/09/12 13:06:01;;;;;;;2.10;2.00;;;26.90;74.50;;;;;;4991815;28;20546;-82
2022/09/12 13:08:31;;;;;;;3.10;2.50;;;26.90;74.30;;;;;;5037129;28;20847;-84
2022/09/12 13:11:01;;;;;;;2.40;2.20;;;26.90;74.10;;;;;;5092986;28;20440;-84
2022/09/12 13:13:34;;;;;;;2.20;1.83;;;26.90;74.00;;;;;;5093346;28;20475;-85
2022/09/12 13:16:01;;;;;;;1.90;1.80;;;27.00;74.10;;;;;;5092436;28;20511;-80
2022/09/12 13:18:31;;;;;;;3.03;1.50;;;27.00;73.90;;;;;;5092564;28;20444;-81
2022/09/12 13:21:09;;;;;;;1.50;1.40;;;27.00;73.80;;;;;;5091636;28;20455;-81
2022/09/12 13:23:36;;;;;;;2.63;2.10;;;27.00;73.60;;;;;;5091469;28;20565;-81
2022/09/12 13:26:04;;;;;;;1.80;1.70;;;27.00;73.50;;;;;;5092504;28;20439;-82
2022/09/12 13:28:31;;;;;;;1.77;1.67;;;27.00;73.30;;;;;;5092522;28;20463;-81
2022/09/12 13:31:02;;;;;;;1.60;1.50;;;27.00;73.20;;;;;;5092397;28;20455;-81
2022/09/12 13:33:39;;;;;;;2.07;1.97;;;27.00;74.20;;;;;;5092410;28;20812;-80
2022/09/12 13:36:46;;;;;;;2.40;1.60;;;27.00;73.10;;;;;;5092495;28;20448;-81
2022/09/12 13:39:20;;;;;;;2.23;2.10;;;27.00;72.90;;;;;;5093114;28;20442;-84
2022/09/12 13:42:16;;;;;;;1.93;1.73;;;27.00;72.90;;;;;;5093659;28;20435;-81
2022/09/12 13:44:47;;;;;;;2.13;1.57;;;27.00;72.80;;;;;;5095639;28;21036;-80
2022/09/12 13:47:17;;;;;;;1.83;1.73;;;27.00;72.80;;;;;;5095996;28;20804;-80
2022/09/12 13:49:46;;;;;;;2.03;1.80;;;27.00;72.80;;;;;;5095720;28;20439;-82
2022/09/12 13:52:19;;;;;;;1.73;1.63;;;27.00;73.00;;;;;;5096149;28;20452;-82
2022/09/12 13:54:49;;;;;;;2.97;2.30;;;27.10;73.10;;;;;;5095949;28;20489;-82
2022/09/12 13:57:32;;;;;;;2.03;1.90;;;27.10;73.10;;;;;;5096229;28;20502;-81
2022/09/12 14:00:00;;;;;;;1.97;1.87;;;27.20;72.90;;;;;;5096530;28;20444;-82
2022/09/12 14:02:30;;;;;;;2.53;2.00;;;27.20;72.80;;;;;;5096724;28;20447;-82
2022/09/12 14:05:10;;;;;;;2.90;2.00;;;27.20;72.80;;;;;;5096332;28;20440;-82
2022/09/12 14:07:53;;;;;;;1.87;1.77;;;27.20;72.80;;;;;;5096615;28;20440;-82
2022/09/12 14:10:27;;;;;;;1.93;1.60;;;27.30;72.70;;;;;;5096316;28;20811;-81
2022/09/12 14:12:56;;;;;;;2.90;2.37;;;27.20;72.70;;;;;;5096327;28;20463;-80
2022/09/12 14:15:27;;;;;;;2.60;1.60;;;27.20;72.70;;;;;;5096005;28;20451;-80
2022/09/12 14:17:59;;;;;;;1.80;1.70;;;27.20;71.90;;;;;;5096283;28;20487;-80
2022/09/12 14:20:30;;;;;;;1.83;1.73;;;27.10;71.50;;;;;;5096105;28;20501;-80
2022/09/12 14:23:01;;;;;;;1.87;1.70;;;27.10;71.20;;;;;;5096358;28;21045;-80
2022/09/12 14:25:32;;;;;;;1.93;1.83;;;27.10;71.40;;;;;;5096097;28;20923;-80
2022/09/12 14:28:00;;;;;;;1.80;1.70;;;27.10;71.40;;;;;;5096047;28;20444;-80
2022/09/12 14:30:29;;;;;;;1.90;1.80;;;27.20;71.50;;;;;;5096114;28;20541;-80
2022/09/12 14:33:19;;;;;;;1.60;1.50;;;27.10;71.40;;;;;;5095872;28;20869;-80
2022/09/12 14:35:48;;;;;;;1.57;1.47;;;27.10;71.10;;;;;;5095968;28;20435;-80
2022/09/12 14:38:23;;;;;;;1.83;1.73;;;27.00;71.00;;;;;;5095830;28;20487;-80
2022/09/12 14:40:52;;;;;;;1.50;1.40;;;27.00;71.00;;;;;;5095718;28;20798;-80
2022/09/12 14:43:24;;;;;;;1.60;1.50;;;27.00;71.30;;;;;;5095713;28;20566;-80
2022/09/12 14:45:54;;;;;;;1.60;1.50;;;27.00;71.30;;;;;;5095558;28;20922;-80
2022/09/12 14:48:21;;;;;;;1.90;1.67;;;27.00;71.30;;;;;;5095565;28;20443;-80
2022/09/12 14:50:49;;;;;;;1.80;1.70;;;27.00;71.30;;;;;;5081771;28;20445;-81
2022/09/12 14:53:26;;;;;;;1.77;1.67;;;27.00;71.40;;;;;;5076552;28;20457;-81
2022/09/12 14:55:58;;;;;;;2.03;1.93;;;27.10;71.70;;;;;;5075426;28;20811;-81
2022/09/12 14:58:26;;;;;;;1.80;1.70;;;27.10;71.60;;;;;;5075127;28;20956;-81
2022/09/12 15:00:56;;;;;;;2.27;2.17;;;27.20;71.50;;;;;;5089126;28;20462;-81
2022/09/12 15:03:29;;;;;;;2.00;1.90;;;27.20;71.30;;;;;;5085454;28;20946;-81
2022/09/12 15:05:56;;;;;;;1.77;1.67;;;27.20;71.30;;;;;;5084534;28;20432;-79
2022/09/12 15:08:25;;;;;;;1.80;1.70;;;27.20;71.20;;;;;;5095186;28;20436;-79
2022/09/12 15:10:51;;;;;;;1.83;1.73;;;27.10;71.90;;;;;;5095024;28;20456;-79
2022/09/12 15:13:21;;;;;;;2.37;2.17;;;27.10;71.10;;;;;;5095061;28;20459;-80
2022/09/12 15:15:50;;;;;;;5.20;1.90;;;27.10;71.10;;;;;;5094949;28;20432;-80
2022/09/12 15:18:17;;;;;;;2.37;1.80;;;27.10;71.10;;;;;;5094025;28;20569;-80
2022/09/12 15:20:46;;;;;;;1.93;1.83;;;27.10;71.10;;;;;;5114141;28;20573;-80
2022/09/12 15:23:18;;;;;;;1.70;1.60;;;27.00;71.10;;;;;;5115357;28;20450;-80
2022/09/12 15:25:46;;;;;;;1.73;1.63;;;27.00;71.00;;;;;;5115495;28;20439;-80
2022/09/12 15:28:18;;;;;;;2.10;1.90;;;27.00;71.00;;;;;;5115594;28;20500;-80
2022/09/12 15:30:46;;;;;;;2.60;1.80;;;27.00;70.90;;;;;;5115328;28;20443;-81
2022/09/12 15:33:13;;;;;;;3.23;2.20;;;27.00;70.90;;;;;;5115315;28;20518;-81
2022/09/12 15:35:40;;;;;;;2.47;1.87;;;27.00;70.90;;;;;;5115063;28;20462;-82
2022/09/12 15:38:07;;;;;;;3.03;1.93;;;27.00;70.90;;;;;;5115156;28;20488;-81
2022/09/12 15:40:33;;;;;;;3.93;1.70;;;27.00;71.00;;;;;;5115000;28;20489;-81
2022/09/12 15:43:02;;;;;;;2.37;2.17;;;26.90;71.90;;;;;;5115016;28;20459;-81
2022/09/12 15:45:31;;;;;;;2.97;2.23;;;27.00;71.10;;;;;;5115267;28;20451;-81
2022/09/12 15:47:58;;;;;;;2.40;1.77;;;26.90;71.90;;;;;;5115401;28;20446;-81
2022/09/12 15:50:25;;;;;;;2.33;2.10;;;26.90;71.10;;;;;;5114596;28;20443;-82
2022/09/12 15:52:52;;;;;;;4.17;2.10;;;26.90;71.10;;;;;;5113236;28;20438;-81
2022/09/12 15:55:21;;;;;;;3.33;1.80;;;26.90;71.10;;;;;;5113618;28;20443;-81
2022/09/12 15:57:48;;;;;;;4.73;2.10;;;26.90;71.10;;;;;;5113833;28;20486;-81
2022/09/12 16:00:18;;;;;;;1.87;1.77;;;26.90;71.10;;;;;;5114125;28;20926;-81
2022/09/12 16:02:46;;;;;;;1.87;1.77;;;26.90;71.10;;;;;;5114092;28;20443;-81
2022/09/12 16:05:15;;;;;;;5.40;1.87;;;26.90;71.00;;;;;;5113744;28;20447;-81
2022/09/12 16:07:43;;;;;;;1.70;1.60;;;26.90;71.10;;;;;;5114636;28;20446;-82
2022/09/12 16:10:15;;;;;;;1.50;1.40;;;26.90;71.10;;;;;;5114463;28;20949;-81
2022/09/12 16:12:42;;;;;;;2.37;1.47;;;26.90;71.10;;;;;;5114334;28;20470;-81
2022/09/12 16:15:13;;;;;;;2.27;1.70;;;26.90;71.20;;;;;;5114562;28;20811;-81
2022/09/12 16:17:41;;;;;;;2.17;1.90;;;26.90;71.30;;;;;;5114400;28;20486;-81
2022/09/12 16:20:09;;;;;;;5.60;2.20;;;26.90;71.40;;;;;;5114247;28;20474;-81
2022/09/12 16:22:36;;;;;;;2.53;1.63;;;26.80;71.30;;;;;;5114131;28;20451;-81
2022/09/12 16:25:04;;;;;;;2.67;1.77;;;26.80;71.30;;;;;;5114457;28;20526;-81
2022/09/12 16:27:31;;;;;;;2.10;1.90;;;26.80;71.30;;;;;;5114414;28;20439;-81
2022/09/12 16:29:58;;;;;;;1.83;1.73;;;26.80;71.20;;;;;;5114224;28;20430;-81
2022/09/12 16:32:25;;;;;;;2.30;1.63;;;26.90;71.30;;;;;;5114005;28;20447;-81
2022/09/12 16:34:53;;;;;;;1.50;1.40;;;26.80;72.00;;;;;;5114005;28;20542;-81
2022/09/12 16:37:20;;;;;;;1.63;1.53;;;26.90;71.30;;;;;;5113627;28;20493;-81
2022/09/12 16:39:47;;;;;;;1.70;1.60;;;26.80;71.20;;;;;;5114134;28;20440;-81
2022/09/12 16:42:14;;;;;;;1.77;1.67;;;26.80;71.20;;;;;;5113250;28;20446;-81
2022/09/12 16:44:42;;;;;;;1.60;1.50;;;26.80;71.10;;;;;;5113781;28;20818;-81
2022/09/12 16:47:08;;;;;;;2.20;1.87;;;26.90;71.20;;;;;;5113812;28;20443;-81
2022/09/12 16:49:35;;;;;;;2.00;1.47;;;26.80;71.10;;;;;;5113728;28;21046;-81
2022/09/12 16:52:04;;;;;;;2.93;1.57;;;26.80;71.10;;;;;;5113920;28;20446;-81
2022/09/12 16:54:31;;;;;;;1.70;1.60;;;26.80;71.00;;;;;;5113622;28;20449;-81
2022/09/12 16:56:58;;;;;;;1.97;1.80;;;26.80;71.10;;;;;;5113478;28;20797;-81
2022/09/12 16:59:25;;;;;;;1.67;1.57;;;26.80;71.10;;;;;;5113629;28;20530;-81
2022/09/12 17:01:52;;;;;;;1.93;1.53;;;26.80;71.10;;;;;;5113464;28;20504;-81
2022/09/12 17:04:19;;;;;;;2.90;1.60;;;26.80;71.20;;;;;;5113410;28;20504;-81
2022/09/12 17:06:45;;;;;;;1.87;1.50;;;26.80;71.20;;;;;;5113779;28;20821;-81
2022/09/12 17:09:17;;;;;;;1.40;1.30;;;26.80;71.10;;;;;;5112539;28;20451;-81
2022/09/12 17:11:46;;;;;;;2.00;1.90;;;26.80;71.20;;;;;;5111962;28;20447;-81
2022/09/12 17:14:13;;;;;;;1.70;1.60;;;26.80;71.20;;;;;;5112419;28;20472;-81
2022/09/12 17:16:41;;;;;;;1.73;1.40;;;26.80;71.10;;;;;;5111564;28;20450;-81
2022/09/12 17:19:11;;;;;;;2.17;1.97;;;26.80;71.10;;;;;;5112220;28;20490;-81
2022/09/12 17:21:38;;;;;;;2.20;2.00;;;26.80;71.10;;;;;;5112429;28;20442;-81
2022/09/12 17:24:05;;;;;;;1.93;1.83;;;26.80;71.10;;;;;;5112676;28;20439;-81
2022/09/12 17:26:33;;;;;;;1.60;1.50;;;26.80;71.10;;;;;;5113425;28;20435;-81
2022/09/12 17:29:00;;;;;;;2.50;2.07;;;26.80;71.10;;;;;;5113077;28;20474;-81
2022/09/12 17:31:27;;;;;;;2.37;1.93;;;26.80;71.10;;;;;;5112729;28;20807;-81
2022/09/12 17:33:56;;;;;;;2.00;1.90;;;26.80;71.10;;;;;;5113033;28;20496;-81
2022/09/12 17:36:24;;;;;;;1.80;1.70;;;26.80;71.10;;;;;;5104793;28;20451;-81
2022/09/12 17:38:53;;;;;;;1.80;1.70;;;26.80;71.10;;;;;;5113355;28;20489;-81
2022/09/12 17:41:22;;;;;;;1.80;1.70;;;26.80;71.00;;;;;;5113314;28;20435;-81
2022/09/12 17:43:53;;;;;;;2.07;1.73;;;26.80;71.10;;;;;;5113095;28;20467;-81
2022/09/12 17:46:21;;;;;;;2.37;1.97;;;26.80;71.00;;;;;;5113177;28;20446;-81
2022/09/12 17:48:52;;;;;;;1.70;1.60;;;26.80;71.50;;;;;;5113012;28;20449;-81
2022/09/12 17:51:19;;;;;;;1.80;1.70;;;26.80;71.00;;;;;;5112990;28;20484;-81
2022/09/12 17:53:46;;;;;;;1.97;1.87;;;26.80;71.10;;;;;;5112849;28;20453;-81
2022/09/12 17:56:14;;;;;;;1.57;1.47;;;26.70;71.00;;;;;;5112973;28;20542;-81
2022/09/12 17:58:41;;;;;;;2.40;2.20;;;26.70;71.00;;;;;;5112833;28;20486;-81
2022/09/12 18:03:59;;;;;;;1.90;1.80;;;26.80;71.20;;;;;;5113137;28;20418;-81
2022/09/12 18:06:26;;;;;;;2.23;2.03;;;26.70;71.10;;;;;;5112693;28;20439;-81
2022/09/12 18:08:53;;;;;;;1.70;1.60;;;26.70;71.20;;;;;;5113058;28;20446;-81
2022/09/12 18:11:20;;;;;;;2.10;2.00;;;26.70;71.20;;;;;;5112742;28;20439;-81
2022/09/12 18:13:47;;;;;;;2.50;2.30;;;26.70;71.10;;;;;;5112562;28;20455;-81
2022/09/12 18:16:15;;;;;;;2.60;2.30;;;26.60;71.10;;;;;;5112561;28;20443;-81
2022/09/12 18:18:42;;;;;;;2.03;1.93;;;26.60;71.10;;;;;;5112550;28;21109;-81
2022/09/12 18:21:11;;;;;;;2.43;2.33;;;26.60;71.10;;;;;;5112737;28;20925;-81
2022/09/12 18:23:38;;;;;;;2.40;2.30;;;26.60;71.20;;;;;;5112976;28;20447;-81
2022/09/12 18:26:07;;;;;;;2.53;2.43;;;26.50;71.30;;;;;;5112810;28;20435;-81
2022/09/12 18:28:34;;;;;;;3.03;2.73;;;26.60;71.40;;;;;;5115217;28;20449;-81
2022/09/12 18:31:01;;;;;;;2.57;2.40;;;26.50;71.60;;;;;;5116278;28;20808;-81
2022/09/12 18:33:29;;;;;;;2.20;2.10;;;26.50;71.90;;;;;;5116190;28;20546;-81
2022/09/12 18:35:56;;;;;;;2.90;2.37;;;26.50;72.00;;;;;;5116157;28;20447;-82
2022/09/12 18:38:23;;;;;;;3.10;2.53;;;26.50;72.20;;;;;;5110917;28;20920;-82
2022/09/12 18:40:50;;;;;;;2.90;2.60;;;26.40;72.30;;;;;;5116445;28;20451;-81
2022/09/12 18:43:16;;;;;;;3.37;3.17;;;26.50;72.10;;;;;;5116036;28;20889;-81
2022/09/12 18:45:43;;;;;;;2.97;2.77;;;26.50;71.90;;;;;;5116235;28;20527;-81
2022/09/12 18:48:10;;;;;;;3.13;2.90;;;26.50;71.60;;;;;;5114693;28;20443;-82
2022/09/12 18:50:38;;;;;;;2.77;2.57;;;26.50;71.60;;;;;;5096408;28;20442;-83
2022/09/12 18:53:05;;;;;;;3.53;2.90;;;26.50;71.60;;;;;;5095365;28;20442;-83
2022/09/12 18:55:32;;;;;;;3.60;2.67;;;26.60;71.90;;;;;;5094989;28;20436;-83
2022/09/12 18:57:58;;;;;;;4.70;2.50;;;26.60;72.20;;;;;;5094742;28;20479;-82
2022/09/12 19:00:25;;;;;;;2.17;2.07;;;26.60;72.20;;;;;;5094333;28;20448;-83
2022/09/12 19:02:52;;;;;;;10.13;3.57;;;26.60;72.10;;;;;;5094937;28;20958;-83
2022/09/12 19:05:19;;;;;;;5.33;4.07;;;26.60;72.10;;;;;;5094744;28;20444;-83
2022/09/12 19:07:47;;;;;;;4.13;3.23;;;26.50;72.30;;;;;;5095221;28;20804;-84
2022/09/12 19:10:14;;;;;;;3.43;3.10;;;26.60;72.20;;;;;;5096970;28;20450;-82
2022/09/12 19:12:41;;;;;;;3.00;2.80;;;26.60;72.10;;;;;;5099767;28;20456;-88
2022/09/12 19:15:08;;;;;;;3.57;2.60;;;26.60;71.90;;;;;;5116428;28;20519;-83
2022/09/12 19:17:35;;;;;;;4.23;2.70;;;26.70;72.00;;;;;;5116148;28;20437;-83
2022/09/12 19:20:03;;;;;;;2.83;2.63;;;26.60;71.90;;;;;;5129733;27;20886;-83
2022/09/12 19:22:30;;;;;;;6.80;2.20;;;26.70;71.90;;;;;;5128590;27;20515;-83
2022/09/12 19:24:58;;;;;;;2.97;2.67;;;26.70;71.90;;;;;;5095592;28;20428;-83
2022/09/12 19:27:25;;;;;;;4.40;2.40;;;26.70;72.00;;;;;;5107704;28;20981;-83
2022/09/12 19:29:52;;;;;;;3.33;2.80;;;26.60;72.20;;;;;;5115244;28;20493;-83
2022/09/12 19:32:19;;;;;;;2.30;2.20;;;26.70;72.30;;;;;;5109470;28;20439;-83
2022/09/12 19:34:46;;;;;;;2.40;2.20;;;26.70;72.20;;;;;;5115261;28;21024;-83
2022/09/12 19:37:13;;;;;;;6.80;2.07;;;26.70;73.00;;;;;;5110597;28;20436;-84
2022/09/12 19:39:41;;;;;;;2.73;2.53;;;26.70;72.30;;;;;;5115175;28;20509;-84
2022/09/12 19:42:10;;;;;;;2.50;2.40;;;26.70;72.20;;;;;;5115496;28;20903;-84
2022/09/12 19:44:37;;;;;;;3.40;2.33;;;26.70;72.20;;;;;;5115123;28;20470;-90
2022/09/12 19:47:03;;;;;;;3.43;2.30;;;26.70;72.30;;;;;;5115558;28;20843;-83
2022/09/12 19:49:30;;;;;;;2.13;2.03;;;26.70;72.30;;;;;;5115974;28;20796;-83
2022/09/12 19:51:57;;;;;;;2.73;2.53;;;26.70;72.20;;;;;;5112552;28;20527;-82
2022/09/12 19:54:24;;;;;;;2.27;2.07;;;26.70;72.20;;;;;;5107123;28;20439;-83
2022/09/12 19:56:51;;;;;;;2.77;2.43;;;26.70;72.20;;;;;;5115438;28;20525;-84
2022/09/12 19:59:19;;;;;;;2.30;2.20;;;26.70;72.30;;;;;;5115681;28;20830;-83
2022/09/12 20:01:46;;;;;;;2.70;2.13;;;26.70;72.20;;;;;;5115471;28;20531;-83
2022/09/12 20:04:12;;;;;;;2.47;2.37;;;26.70;72.30;;;;;;5115233;28;20518;-82
2022/09/12 20:06:39;;;;;;;2.50;2.40;;;26.70;72.30;;;;;;5115380;28;20438;-83
2022/09/12 20:09:06;;;;;;;2.60;2.43;;;26.70;73.10;;;;;;5115135;28;20840;-83
2022/09/12 20:11:33;;;;;;;2.80;2.10;;;26.70;72.30;;;;;;5113735;28;20526;-82
2022/09/12 20:14:00;;;;;;;2.27;2.17;;;26.70;72.30;;;;;;5115003;28;20435;-82
2022/09/12 20:16:28;;;;;;;2.70;2.03;;;26.70;72.30;;;;;;5115039;28;20430;-82
2022/09/12 20:18:57;;;;;;;2.73;2.53;;;26.70;72.30;;;;;;5114750;28;20491;-82
2022/09/12 20:21:29;;;;;;;2.47;2.20;;;26.70;72.30;;;;;;5106119;28;20516;-84
2022/09/12 20:23:59;;;;;;;2.47;2.27;;;26.70;72.30;;;;;;5114938;28;20948;-83
2022/09/12 20:26:26;;;;;;;4.40;2.23;;;26.70;72.30;;;;;;5114982;28;20439;-83
2022/09/12 20:28:53;;;;;;;2.03;1.93;;;26.70;72.30;;;;;;5114926;28;20526;-83
2022/09/12 20:31:20;;;;;;;2.30;2.20;;;26.80;72.30;;;;;;5114408;28;20435;-83
2022/09/12 20:33:48;;;;;;;2.37;2.27;;;26.80;72.40;;;;;;5114699;28;20439;-84
2022/09/12 20:36:17;;;;;;;1.93;1.83;;;26.80;72.40;;;;;;5114758;28;20435;-83
2022/09/12 20:38:48;;;;;;;1.87;1.77;;;26.80;72.40;;;;;;5114525;28;20977;-84
2022/09/12 20:41:15;;;;;;;1.83;1.73;;;26.80;72.40;;;;;;5113721;28;20434;-83
2022/09/12 20:43:42;;;;;;;1.80;1.70;;;26.80;72.40;;;;;;5114483;28;20473;-84
2022/09/12 20:46:10;;;;;;;2.07;1.97;;;26.80;72.40;;;;;;5114355;28;20435;-83
2022/09/12 20:48:37;;;;;;;2.00;1.90;;;26.80;72.40;;;;;;5109771;28;20452;-83
2022/09/12 20:51:07;;;;;;;2.63;2.43;;;26.70;72.30;;;;;;5111818;28;20462;-83
2022/09/12 20:53:34;;;;;;;2.43;2.33;;;26.80;72.40;;;;;;5114396;28;20442;-84
2022/09/12 20:56:01;;;;;;;2.17;2.00;;;26.80;72.40;;;;;;5114104;28;20517;-84
2022/09/12 20:58:27;;;;;;;2.63;2.37;;;26.80;73.30;;;;;;5114853;28;20509;-84
2022/09/12 21:00:54;;;;;;;2.20;2.03;;;26.80;72.40;;;;;;5114124;28;20485;-84
2022/09/12 21:03:21;;;;;;;1.93;1.83;;;26.70;72.20;;;;;;5113901;28;20474;-83
2022/09/12 21:05:48;;;;;;;1.83;1.70;;;26.80;72.30;;;;;;5114027;28;20439;-82
2022/09/12 21:08:16;;;;;;;3.20;1.90;;;26.80;72.20;;;;;;5110204;28;21002;-83
2022/09/12 21:10:44;;;;;;;1.83;1.63;;;26.70;72.40;;;;;;5114086;28;20442;-82
2022/09/12 21:13:11;;;;;;;2.40;1.83;;;26.80;72.60;;;;;;5112353;28;20459;-90
2022/09/12 21:15:38;;;;;;;2.53;2.20;;;26.80;72.60;;;;;;5095704;28;20539;-89
2022/09/12 21:18:05;;;;;;;2.07;1.90;;;26.80;72.60;;;;;;5092849;28;20448;-83
2022/09/12 21:20:32;;;;;;;1.80;1.63;;;26.80;72.40;;;;;;5093151;28;20923;-83
2022/09/12 21:22:59;;;;;;;1.80;1.70;;;26.80;72.40;;;;;;5094018;28;20444;-83
2022/09/12 21:25:27;;;;;;;2.60;1.70;;;26.80;73.30;;;;;;5093574;28;20451;-83
2022/09/12 21:27:54;;;;;;;2.03;1.83;;;26.80;72.50;;;;;;5093723;28;20856;-83
2022/09/12 21:30:21;;;;;;;2.10;2.00;;;26.80;72.30;;;;;;5093636;28;20463;-83
2022/09/12 21:32:48;;;;;;;1.70;1.60;;;26.80;72.20;;;;;;5093336;28;20450;-83
2022/09/12 21:35:15;;;;;;;1.53;1.43;;;26.80;72.10;;;;;;5093652;28;20523;-83
2022/09/12 21:37:42;;;;;;;1.70;1.60;;;26.80;72.10;;;;;;5093416;28;20439;-85
2022/09/12 21:40:09;;;;;;;2.70;1.87;;;26.80;72.10;;;;;;5092799;28;20847;-91
2022/09/12 21:42:37;;;;;;;2.20;2.00;;;26.80;72.00;;;;;;5093323;28;20462;-83
2022/09/12 21:45:05;;;;;;;1.87;1.77;;;26.80;72.00;;;;;;5093523;28;20468;-83
2022/09/12 21:47:32;;;;;;;1.97;1.87;;;26.80;72.00;;;;;;5093535;28;20451;-83
2022/09/12 21:49:59;;;;;;;1.90;1.80;;;26.80;72.00;;;;;;5093215;28;20471;-83
2022/09/12 21:52:26;;;;;;;2.10;1.57;;;26.80;71.90;;;;;;5093378;28;20524;-83
2022/09/12 21:54:53;;;;;;;1.87;1.77;;;26.80;71.90;;;;;;5093090;28;20499;-83
2022/09/12 21:57:20;;;;;;;1.67;1.57;;;26.80;71.90;;;;;;5104632;28;20445;-83
2022/09/12 21:59:48;;;;;;;1.93;1.83;;;26.80;71.90;;;;;;5113433;28;20479;-91
2022/09/12 22:02:15;;;;;;;1.50;1.30;;;26.80;71.80;;;;;;5114100;28;20482;-86
2022/09/12 22:04:42;;;;;;;1.47;1.37;;;26.80;71.80;;;;;;5117521;28;20945;-83
2022/09/12 22:07:09;;;;;;;1.50;1.40;;;26.80;71.70;;;;;;5117514;28;20443;-83
2022/09/12 22:09:36;;;;;;;1.50;1.40;;;26.80;71.70;;;;;;5117567;28;20451;-83
2022/09/12 22:12:03;;;;;;;2.10;1.90;;;26.80;71.60;;;;;;5117577;28;20514;-83
2022/09/12 22:14:30;;;;;;;1.53;1.43;;;26.80;71.60;;;;;;5117369;28;20442;-83
2022/09/12 22:16:58;;;;;;;1.60;1.50;;;26.80;71.60;;;;;;5117451;28;20530;-82
2022/09/12 22:19:25;;;;;;;2.17;1.90;;;26.80;71.50;;;;;;5116943;28;20547;-88
2022/09/12 22:24:37;;;;;;;1.93;1.83;;;26.80;71.60;;;;;;5117321;28;20481;-83
2022/09/12 22:27:05;;;;;;;1.80;1.70;;;26.80;71.60;;;;;;5117228;28;20474;-82
2022/09/12 22:29:33;;;;;;;1.60;1.50;;;26.80;71.50;;;;;;5117304;28;20518;-83
2022/09/12 22:32:01;;;;;;;2.27;2.17;;;26.80;71.50;;;;;;5117156;28;20435;-84
2022/09/12 22:34:29;;;;;;;1.70;1.60;;;26.80;71.50;;;;;;5116992;28;20450;-84
2022/09/12 22:36:55;;;;;;;1.40;1.30;;;26.80;71.50;;;;;;5117008;28;20443;-83
2022/09/12 22:39:22;;;;;;;1.90;1.80;;;26.80;71.50;;;;;;5116878;28;20833;-83
2022/09/12 22:41:49;;;;;;;1.60;1.50;;;26.80;71.50;;;;;;5116912;28;20977;-83
2022/09/12 22:44:16;;;;;;;1.73;1.50;;;26.80;71.40;;;;;;5116968;28;20931;-83
2022/09/12 22:46:44;;;;;;;1.60;1.50;;;26.80;71.40;;;;;;5116790;28;20447;-83
2022/09/12 22:49:12;;;;;;;2.03;1.93;;;26.80;71.40;;;;;;5116847;28;20447;-83
2022/09/12 22:51:39;;;;;;;1.33;1.23;;;26.80;71.40;;;;;;5116794;28;20505;-83
2022/09/12 22:54:07;;;;;;;1.80;1.70;;;26.80;71.40;;;;;;5116688;28;20821;-83
2022/09/12 22:56:34;;;;;;;1.37;1.27;;;26.80;71.40;;;;;;5116817;28;20474;-83
2022/09/12 22:59:01;;;;;;;1.70;1.60;;;26.80;71.30;;;;;;5116615;28;20496;-83
2022/09/12 23:01:28;;;;;;;1.70;1.60;;;26.80;71.30;;;;;;5116673;28;20505;-83
2022/09/12 23:03:55;;;;;;;1.80;1.70;;;26.80;71.30;;;;;;5116291;28;20450;-83
2022/09/12 23:06:23;;;;;;;1.57;1.47;;;26.80;71.30;;;;;;5116741;28;20933;-83
2022/09/12 23:08:50;;;;;;;1.87;1.77;;;26.80;71.30;;;;;;5116422;28;20439;-83
2022/09/12 23:11:19;;;;;;;1.80;1.70;;;26.80;72.10;;;;;;5116349;28;20596;-92
2022/09/12 23:13:47;;;;;;;1.70;1.60;;;26.80;71.30;;;;;;5115813;28;20954;-91
2022/09/12 23:16:17;;;;;;;1.67;1.57;;;26.80;71.30;;;;;;5116001;28;20431;-82
2022/09/12 23:18:43;;;;;;;1.83;1.73;;;26.80;71.20;;;;;;5115937;28;20534;-89
2022/09/12 23:21:12;;;;;;;2.07;1.97;;;26.80;71.20;;;;;;5116229;28;20487;-83
2022/09/12 23:23:41;;;;;;;1.73;1.63;;;26.80;71.20;;;;;;5116073;28;20461;-83
2022/09/12 23:26:11;;;;;;;1.63;1.53;;;26.80;71.10;;;;;;5116202;28;20534;-83
2022/09/12 23:28:41;;;;;;;1.90;1.80;;;26.80;71.20;;;;;;5116220;28;20938;-82
2022/09/12 23:31:08;;;;;;;1.60;1.50;;;26.80;71.20;;;;;;5115941;28;20522;-82
2022/09/12 23:33:36;;;;;;;1.73;1.63;;;26.80;71.20;;;;;;5115923;28;20449;-82
2022/09/12 23:36:05;;;;;;;1.50;1.40;;;26.80;71.20;;;;;;5116040;28;20435;-83
2022/09/12 23:38:33;;;;;;;1.73;1.63;;;26.80;71.20;;;;;;5115972;28;20883;-82
2022/09/12 23:41:03;;;;;;;1.50;1.40;;;26.80;71.20;;;;;;5115708;28;20475;-82
2022/09/12 23:43:30;;;;;;;1.67;1.57;;;26.80;71.20;;;;;;5115592;28;20467;-83
2022/09/12 23:45:57;;;;;;;1.60;1.50;;;26.80;71.10;;;;;;5115688;28;20447;-83
2022/09/12 23:48:24;;;;;;;1.53;1.43;;;26.70;71.00;;;;;;5115779;28;21025;-83
2022/09/12 23:50:51;;;;;;;1.47;1.37;;;26.80;71.10;;;;;;5115712;28;20443;-90
2022/09/12 23:53:20;;;;;;;1.83;1.73;;;26.70;71.00;;;;;;5115536;28;20823;-83
2022/09/12 23:55:47;;;;;;;1.50;1.40;;;26.70;71.00;;;;;;5115567;28;20446;-83
2022/09/12 23:58:16;;;;;;;1.60;1.50;;;26.70;70.90;;;;;;5115477;28;20918;-88
